sensor_id;sensor_type;location;lat;lon;timestamp;pressure;altitude;pressure_sealevel;temperature;humidity
40089;BME280;25793;55.706;13.186;2022-07-22T00:01:39;100784.38;;;20.10;77.37
40089;BME280;25793;55.706;13.186;2022-07-22T00:04:06;100781.56;;;19.93;78.43
40089;BME280;25793;55.706;13.186;2022-07-22T00:06:33;100780.00;;;20.01;78.38
40089;BME280;25793;55.706;13.186;2022-07-22T00:08:59;100783.91;;;19.69;79.55
40089;BME280;25793;55.706;13.186;2022-07-22T00:11:26;100789.00;;;19.70;79.85
40089;BME280;25793;55.706;13.186;2022-07-22T00:13:53;100784.22;;;19.84;79.67
40089;BME280;25793;55.706;13.186;2022-07-22T00:16:19;100781.66;;;19.74;79.81
40089;BME280;25793;55.706;13.186;2022-07-22T00:18:46;100783.47;;;19.35;81.52
40089;BME280;25793;55.706;13.186;2022-07-22T00:21:13;100789.09;;;19.13;82.96
40089;BME280;25793;55.706;13.186;2022-07-22T00:23:40;100785.63;;;19.12;83.39
40089;BME280;25793;55.706;13.186;2022-07-22T00:26:06;100785.94;;;18.70;85.33
40089;BME280;25793;55.706;13.186;2022-07-22T00:28:33;100788.44;;;19.11;84.44
40089;BME280;25793;55.706;13.186;2022-07-22T00:31:00;100785.50;;;19.04;84.75
40089;BME280;25793;55.706;13.186;2022-07-22T00:33:26;100779.13;;;19.06;84.49
40089;BME280;25793;55.706;13.186;2022-07-22T00:35:53;100783.19;;;18.71;86.71
40089;BME280;25793;55.706;13.186;2022-07-22T00:38:20;100786.47;;;19.03;85.48
40089;BME280;25793;55.706;13.186;2022-07-22T00:40:46;100785.25;;;18.97;85.62
40089;BME280;25793;55.706;13.186;2022-07-22T00:43:13;100780.81;;;19.08;85.48
40089;BME280;25793;55.706;13.186;2022-07-22T00:45:40;100782.72;;;19.15;85.17
40089;BME280;25793;55.706;13.186;2022-07-22T00:48:07;100790.38;;;19.46;84.28
40089;BME280;25793;55.706;13.186;2022-07-22T00:50:34;100786.59;;;19.49;83.77
40089;BME280;25793;55.706;13.186;2022-07-22T00:53:01;100784.09;;;19.85;83.05
40089;BME280;25793;55.706;13.186;2022-07-22T00:55:28;100789.44;;;20.03;81.61
40089;BME280;25793;55.706;13.186;2022-07-22T00:57:55;100778.56;;;20.06;81.39
40089;BME280;25793;55.706;13.186;2022-07-22T01:00:23;100783.41;;;20.11;81.15
40089;BME280;25793;55.706;13.186;2022-07-22T01:02:50;100781.75;;;20.28;80.51
40089;BME280;25793;55.706;13.186;2022-07-22T01:05:17;100785.09;;;20.30;79.53
40089;BME280;25793;55.706;13.186;2022-07-22T01:07:44;100784.25;;;20.30;79.08
40089;BME280;25793;55.706;13.186;2022-07-22T01:10:12;100785.59;;;20.34;78.97
40089;BME280;25793;55.706;13.186;2022-07-22T01:12:39;100796.03;;;20.35;78.79
40089;BME280;25793;55.706;13.186;2022-07-22T01:15:09;100783.63;;;20.54;78.53
40089;BME280;25793;55.706;13.186;2022-07-22T01:17:36;100790.19;;;20.50;77.99
40089;BME280;25793;55.706;13.186;2022-07-22T01:20:05;100793.91;;;20.57;78.00
40089;BME280;25793;55.706;13.186;2022-07-22T01:22:32;100785.84;;;20.59;77.58
40089;BME280;25793;55.706;13.186;2022-07-22T01:24:59;100783.13;;;20.50;78.23
40089;BME280;25793;55.706;13.186;2022-07-22T01:27:26;100780.00;;;20.55;77.80
40089;BME280;25793;55.706;13.186;2022-07-22T01:29:54;100778.06;;;20.39;78.50
40089;BME280;25793;55.706;13.186;2022-07-22T01:32:21;100780.63;;;20.49;78.40
40089;BME280;25793;55.706;13.186;2022-07-22T01:34:47;100776.47;;;20.46;78.48
40089;BME280;25793;55.706;13.186;2022-07-22T01:37:15;100786.53;;;20.43;78.75
40089;BME280;25793;55.706;13.186;2022-07-22T01:39:42;100777.47;;;20.45;78.98
40089;BME280;25793;55.706;13.186;2022-07-22T01:42:09;100781.28;;;20.51;78.88
40089;BME280;25793;55.706;13.186;2022-07-22T01:44:35;100782.44;;;20.66;78.77
40089;BME280;25793;55.706;13.186;2022-07-22T01:47:02;100769.59;;;20.72;78.19
40089;BME280;25793;55.706;13.186;2022-07-22T01:49:29;100774.97;;;20.80;77.96
40089;BME280;25793;55.706;13.186;2022-07-22T01:51:56;100774.28;;;20.78;77.73
40089;BME280;25793;55.706;13.186;2022-07-22T01:54:23;100768.75;;;20.71;77.40
40089;BME280;25793;55.706;13.186;2022-07-22T01:56:50;100761.22;;;20.58;77.62
40089;BME280;25793;55.706;13.186;2022-07-22T01:59:17;100763.94;;;20.48;78.45
40089;BME280;25793;55.706;13.186;2022-07-22T02:01:45;100769.59;;;20.53;78.39
40089;BME280;25793;55.706;13.186;2022-07-22T02:04:12;100772.09;;;20.37;78.91
40089;BME280;25793;55.706;13.186;2022-07-22T02:06:39;100767.56;;;20.47;78.84
40089;BME280;25793;55.706;13.186;2022-07-22T02:09:09;100777.91;;;20.59;77.94
40089;BME280;25793;55.706;13.186;2022-07-22T02:11:48;100775.09;;;20.60;78.13
40089;BME280;25793;55.706;13.186;2022-07-22T02:14:16;100770.50;;;20.62;77.93
40089;BME280;25793;55.706;13.186;2022-07-22T02:16:42;100777.81;;;20.68;77.61
40089;BME280;25793;55.706;13.186;2022-07-22T02:19:10;100767.47;;;20.57;77.76
40089;BME280;25793;55.706;13.186;2022-07-22T02:21:37;100760.34;;;20.31;79.02
40089;BME280;25793;55.706;13.186;2022-07-22T02:24:04;100760.72;;;20.36;78.49
40089;BME280;25793;55.706;13.186;2022-07-22T02:26:31;100751.81;;;20.37;78.65
40089;BME280;25793;55.706;13.186;2022-07-22T02:28:58;100761.97;;;20.50;78.31
40089;BME280;25793;55.706;13.186;2022-07-22T02:31:26;100755.41;;;20.54;77.99
40089;BME280;25793;55.706;13.186;2022-07-22T02:33:52;100757.00;;;20.47;77.61
40089;BME280;25793;55.706;13.186;2022-07-22T02:36:22;100763.28;;;20.46;77.97
40089;BME280;25793;55.706;13.186;2022-07-22T02:38:49;100762.44;;;20.46;77.90
40089;BME280;25793;55.706;13.186;2022-07-22T02:41:16;100755.56;;;20.53;78.03
40089;BME280;25793;55.706;13.186;2022-07-22T02:43:49;100755.41;;;20.54;77.08
40089;BME280;25793;55.706;13.186;2022-07-22T02:46:21;100753.97;;;20.60;77.19
40089;BME280;25793;55.706;13.186;2022-07-22T02:48:48;100752.69;;;20.46;77.18
40089;BME280;25793;55.706;13.186;2022-07-22T02:51:17;100756.25;;;20.37;78.31
40089;BME280;25793;55.706;13.186;2022-07-22T02:53:44;100753.91;;;20.34;78.17
40089;BME280;25793;55.706;13.186;2022-07-22T02:56:11;100758.53;;;19.86;80.05
40089;BME280;25793;55.706;13.186;2022-07-22T02:58:38;100754.78;;;19.88;80.87
40089;BME280;25793;55.706;13.186;2022-07-22T03:01:05;100754.91;;;19.87;80.45
40089;BME280;25793;55.706;13.186;2022-07-22T03:03:41;100759.47;;;19.94;79.72
40089;BME280;25793;55.706;13.186;2022-07-22T03:06:09;100759.19;;;19.98;79.38
40089;BME280;25793;55.706;13.186;2022-07-22T03:08:41;100755.16;;;19.65;79.81
40089;BME280;25793;55.706;13.186;2022-07-22T03:11:07;100758.44;;;19.77;79.04
40089;BME280;25793;55.706;13.186;2022-07-22T03:13:34;100753.38;;;19.66;78.73
40089;BME280;25793;55.706;13.186;2022-07-22T03:16:01;100751.66;;;19.75;78.91
40089;BME280;25793;55.706;13.186;2022-07-22T03:18:28;100755.19;;;19.84;78.46
40089;BME280;25793;55.706;13.186;2022-07-22T03:20:55;100758.69;;;19.84;78.19
40089;BME280;25793;55.706;13.186;2022-07-22T03:23:22;100757.50;;;19.69;78.65
40089;BME280;25793;55.706;13.186;2022-07-22T03:25:49;100753.09;;;19.31;79.64
40089;BME280;25793;55.706;13.186;2022-07-22T03:28:15;100750.69;;;19.10;80.88
40089;BME280;25793;55.706;13.186;2022-07-22T03:30:42;100750.56;;;19.02;80.93
40089;BME280;25793;55.706;13.186;2022-07-22T03:33:09;100753.47;;;18.89;82.33
40089;BME280;25793;55.706;13.186;2022-07-22T03:35:39;100747.97;;;18.72;83.06
40089;BME280;25793;55.706;13.186;2022-07-22T03:38:06;100762.09;;;18.71;83.06
40089;BME280;25793;55.706;13.186;2022-07-22T03:40:34;100745.63;;;18.69;83.58
40089;BME280;25793;55.706;13.186;2022-07-22T03:43:02;100749.09;;;18.50;83.73
40089;BME280;25793;55.706;13.186;2022-07-22T03:45:30;100746.28;;;18.81;82.27
40089;BME280;25793;55.706;13.186;2022-07-22T03:47:59;100747.53;;;18.77;82.02
40089;BME280;25793;55.706;13.186;2022-07-22T03:50:29;100752.50;;;19.00;80.84
40089;BME280;25793;55.706;13.186;2022-07-22T03:52:56;100747.81;;;18.74;81.05
40089;BME280;25793;55.706;13.186;2022-07-22T03:55:23;100744.72;;;19.08;79.72
40089;BME280;25793;55.706;13.186;2022-07-22T03:57:54;100749.75;;;18.91;79.77
40089;BME280;25793;55.706;13.186;2022-07-22T04:00:27;100750.03;;;18.88;79.60
40089;BME280;25793;55.706;13.186;2022-07-22T04:02:55;100756.09;;;19.09;78.42
40089;BME280;25793;55.706;13.186;2022-07-22T04:05:57;100748.94;;;18.71;79.40
40089;BME280;25793;55.706;13.186;2022-07-22T04:08:38;100751.56;;;18.22;81.14
40089;BME280;25793;55.706;13.186;2022-07-22T04:11:06;100747.16;;;18.13;81.07
40089;BME280;25793;55.706;13.186;2022-07-22T04:13:32;100751.56;;;18.22;80.02
40089;BME280;25793;55.706;13.186;2022-07-22T04:15:59;100766.25;;;18.15;80.23
40089;BME280;25793;55.706;13.186;2022-07-22T04:18:30;100753.13;;;17.84;80.59
40089;BME280;25793;55.706;13.186;2022-07-22T04:20:57;100757.78;;;18.21;79.29
40089;BME280;25793;55.706;13.186;2022-07-22T04:23:29;100752.13;;;18.16;78.72
40089;BME280;25793;55.706;13.186;2022-07-22T04:26:16;100762.25;;;18.11;78.87
40089;BME280;25793;55.706;13.186;2022-07-22T04:28:42;100750.47;;;18.25;78.47
40089;BME280;25793;55.706;13.186;2022-07-22T04:31:09;100760.91;;;17.85;79.46
40089;BME280;25793;55.706;13.186;2022-07-22T04:33:40;100756.94;;;17.50;80.81
40089;BME280;25793;55.706;13.186;2022-07-22T04:36:07;100759.50;;;17.71;79.52
40089;BME280;25793;55.706;13.186;2022-07-22T04:38:34;100758.97;;;17.47;80.10
40089;BME280;25793;55.706;13.186;2022-07-22T04:41:03;100757.69;;;17.72;79.00
40089;BME280;25793;55.706;13.186;2022-07-22T04:43:30;100757.16;;;17.37;80.31
40089;BME280;25793;55.706;13.186;2022-07-22T04:45:57;100762.25;;;17.80;78.55
40089;BME280;25793;55.706;13.186;2022-07-22T04:48:29;100760.81;;;17.56;78.79
40089;BME280;25793;55.706;13.186;2022-07-22T04:50:59;100759.44;;;17.62;77.78
40089;BME280;25793;55.706;13.186;2022-07-22T04:53:28;100765.50;;;17.93;76.33
40089;BME280;25793;55.706;13.186;2022-07-22T04:56:10;100756.16;;;17.69;76.61
40089;BME280;25793;55.706;13.186;2022-07-22T04:58:38;100765.75;;;17.80;76.16
40089;BME280;25793;55.706;13.186;2022-07-22T05:01:04;100764.78;;;17.81;75.59
40089;BME280;25793;55.706;13.186;2022-07-22T05:03:32;100758.72;;;17.50;76.29
40089;BME280;25793;55.706;13.186;2022-07-22T05:05:59;100764.44;;;18.15;74.77
40089;BME280;25793;55.706;13.186;2022-07-22T05:08:32;100767.34;;;18.12;74.04
40089;BME280;25793;55.706;13.186;2022-07-22T05:10:59;100764.44;;;18.06;73.67
40089;BME280;25793;55.706;13.186;2022-07-22T05:13:25;100765.09;;;17.57;75.34
40089;BME280;25793;55.706;13.186;2022-07-22T05:15:52;100760.84;;;18.16;73.86
40089;BME280;25793;55.706;13.186;2022-07-22T05:18:19;100771.16;;;17.88;73.64
40089;BME280;25793;55.706;13.186;2022-07-22T05:20:46;100767.38;;;18.32;72.67
40089;BME280;25793;55.706;13.186;2022-07-22T05:23:12;100778.47;;;17.44;75.32
40089;BME280;25793;55.706;13.186;2022-07-22T05:25:39;100773.25;;;17.95;73.75
40089;BME280;25793;55.706;13.186;2022-07-22T05:28:06;100778.53;;;17.54;74.33
40089;BME280;25793;55.706;13.186;2022-07-22T05:30:36;100782.13;;;17.53;74.78
40089;BME280;25793;55.706;13.186;2022-07-22T05:33:05;100781.88;;;17.66;73.80
40089;BME280;25793;55.706;13.186;2022-07-22T05:35:50;100779.81;;;18.00;72.87
40089;BME280;25793;55.706;13.186;2022-07-22T05:38:18;100773.66;;;17.90;72.86
40089;BME280;25793;55.706;13.186;2022-07-22T05:40:45;100784.59;;;17.85;72.96
40089;BME280;25793;55.706;13.186;2022-07-22T05:43:12;100781.91;;;18.36;71.65
40089;BME280;25793;55.706;13.186;2022-07-22T05:45:39;100782.50;;;17.89;73.06
40089;BME280;25793;55.706;13.186;2022-07-22T05:48:06;100782.91;;;18.35;71.83
40089;BME280;25793;55.706;13.186;2022-07-22T05:50:33;100780.97;;;18.57;71.62
40089;BME280;25793;55.706;13.186;2022-07-22T05:53:00;100787.31;;;18.15;72.27
40089;BME280;25793;55.706;13.186;2022-07-22T05:55:26;100780.13;;;18.56;71.99
40089;BME280;25793;55.706;13.186;2022-07-22T05:57:53;100792.16;;;18.79;70.66
40089;BME280;25793;55.706;13.186;2022-07-22T06:00:20;100791.75;;;18.73;71.08
40089;BME280;25793;55.706;13.186;2022-07-22T06:02:47;100792.00;;;18.21;72.38
40089;BME280;25793;55.706;13.186;2022-07-22T06:05:18;100796.22;;;18.63;71.61
40089;BME280;25793;55.706;13.186;2022-07-22T06:08:04;100796.63;;;18.98;70.72
40089;BME280;25793;55.706;13.186;2022-07-22T06:10:39;100786.94;;;18.49;70.75
40089;BME280;25793;55.706;13.186;2022-07-22T06:13:06;100802.19;;;18.65;70.73
40089;BME280;25793;55.706;13.186;2022-07-22T06:15:32;100800.72;;;18.02;71.75
40089;BME280;25793;55.706;13.186;2022-07-22T06:18:01;100801.84;;;18.09;72.38
40089;BME280;25793;55.706;13.186;2022-07-22T06:20:27;100800.09;;;18.49;71.27
40089;BME280;25793;55.706;13.186;2022-07-22T06:22:54;100797.75;;;17.95;72.47
40089;BME280;25793;55.706;13.186;2022-07-22T06:25:22;100794.25;;;17.85;72.33
40089;BME280;25793;55.706;13.186;2022-07-22T06:28:11;100797.28;;;18.21;71.99
40089;BME280;25793;55.706;13.186;2022-07-22T06:30:38;100793.59;;;18.53;70.88
40089;BME280;25793;55.706;13.186;2022-07-22T06:33:06;100802.97;;;18.36;70.89
40089;BME280;25793;55.706;13.186;2022-07-22T06:35:33;100806.19;;;18.59;70.59
40089;BME280;25793;55.706;13.186;2022-07-22T06:37:59;100812.41;;;18.58;70.12
40089;BME280;25793;55.706;13.186;2022-07-22T06:40:45;100811.03;;;18.35;70.57
40089;BME280;25793;55.706;13.186;2022-07-22T06:43:33;100812.69;;;18.36;70.42
40089;BME280;25793;55.706;13.186;2022-07-22T06:46:26;100813.81;;;18.43;70.70
40089;BME280;25793;55.706;13.186;2022-07-22T06:48:53;100809.50;;;18.42;70.20
40089;BME280;25793;55.706;13.186;2022-07-22T06:51:21;100816.28;;;18.25;70.69
40089;BME280;25793;55.706;13.186;2022-07-22T06:53:54;100815.19;;;18.57;69.49
40089;BME280;25793;55.706;13.186;2022-07-22T06:56:21;100817.81;;;18.76;69.26
40089;BME280;25793;55.706;13.186;2022-07-22T06:58:48;100818.53;;;18.88;68.89
40089;BME280;25793;55.706;13.186;2022-07-22T07:01:14;100818.25;;;17.92;71.76
40089;BME280;25793;55.706;13.186;2022-07-22T07:04:02;100822.53;;;18.24;71.62
40089;BME280;25793;55.706;13.186;2022-07-22T07:06:29;100817.13;;;18.74;70.31
40089;BME280;25793;55.706;13.186;2022-07-22T07:09:16;100829.50;;;18.64;70.26
40089;BME280;25793;55.706;13.186;2022-07-22T07:11:53;100826.28;;;18.80;69.74
40089;BME280;25793;55.706;13.186;2022-07-22T07:14:40;100819.75;;;18.94;68.96
40089;BME280;25793;55.706;13.186;2022-07-22T07:17:18;100825.97;;;19.32;68.42
40089;BME280;25793;55.706;13.186;2022-07-22T07:19:45;100818.69;;;19.06;68.71
40089;BME280;25793;55.706;13.186;2022-07-22T07:22:12;100814.22;;;18.87;69.65
40089;BME280;25793;55.706;13.186;2022-07-22T07:24:39;100815.16;;;19.16;67.68
40089;BME280;25793;55.706;13.186;2022-07-22T07:27:06;100813.25;;;19.08;68.67
40089;BME280;25793;55.706;13.186;2022-07-22T07:29:33;100824.25;;;19.41;67.25
40089;BME280;25793;55.706;13.186;2022-07-22T07:32:00;100818.50;;;19.28;67.43
40089;BME280;25793;55.706;13.186;2022-07-22T07:34:27;100822.84;;;18.99;67.79
40089;BME280;25793;55.706;13.186;2022-07-22T07:36:54;100816.41;;;19.21;67.62
40089;BME280;25793;55.706;13.186;2022-07-22T07:39:22;100819.50;;;19.07;67.20
40089;BME280;25793;55.706;13.186;2022-07-22T07:41:48;100822.06;;;19.36;66.89
40089;BME280;25793;55.706;13.186;2022-07-22T07:44:22;100821.69;;;19.12;67.60
40089;BME280;25793;55.706;13.186;2022-07-22T07:46:49;100821.25;;;19.26;67.72
40089;BME280;25793;55.706;13.186;2022-07-22T07:49:15;100824.38;;;19.49;66.51
40089;BME280;25793;55.706;13.186;2022-07-22T07:51:43;100828.22;;;18.98;67.80
40089;BME280;25793;55.706;13.186;2022-07-22T07:54:10;100821.56;;;18.74;68.73
40089;BME280;25793;55.706;13.186;2022-07-22T07:56:38;100828.13;;;18.99;68.21
40089;BME280;25793;55.706;13.186;2022-07-22T07:59:05;100825.03;;;19.61;66.60
40089;BME280;25793;55.706;13.186;2022-07-22T08:01:51;100823.22;;;19.62;65.64
40089;BME280;25793;55.706;13.186;2022-07-22T08:04:26;100828.97;;;19.47;66.04
40089;BME280;25793;55.706;13.186;2022-07-22T08:07:10;100819.78;;;19.51;66.08
40089;BME280;25793;55.706;13.186;2022-07-22T08:09:39;100821.66;;;19.31;66.53
40089;BME280;25793;55.706;13.186;2022-07-22T08:12:15;100835.75;;;19.50;66.11
40089;BME280;25793;55.706;13.186;2022-07-22T08:15:15;100844.97;;;19.26;66.42
40089;BME280;25793;55.706;13.186;2022-07-22T08:17:49;100833.84;;;19.42;66.48
40089;BME280;25793;55.706;13.186;2022-07-22T08:20:16;100844.06;;;18.98;67.27
40089;BME280;25793;55.706;13.186;2022-07-22T08:22:48;100832.13;;;18.74;67.43
40089;BME280;25793;55.706;13.186;2022-07-22T08:25:15;100834.22;;;18.70;67.93
40089;BME280;25793;55.706;13.186;2022-07-22T08:27:42;100836.56;;;19.03;66.90
40089;BME280;25793;55.706;13.186;2022-07-22T08:30:10;100835.88;;;19.01;67.02
40089;BME280;25793;55.706;13.186;2022-07-22T08:32:37;100846.47;;;19.48;65.52
40089;BME280;25793;55.706;13.186;2022-07-22T08:35:06;100848.00;;;19.41;65.33
40089;BME280;25793;55.706;13.186;2022-07-22T08:37:34;100842.03;;;20.15;63.28
40089;BME280;25793;55.706;13.186;2022-07-22T08:40:01;100844.59;;;19.69;63.58
40089;BME280;25793;55.706;13.186;2022-07-22T08:42:29;100849.53;;;19.81;63.66
40089;BME280;25793;55.706;13.186;2022-07-22T08:44:56;100868.41;;;19.39;64.36
40089;BME280;25793;55.706;13.186;2022-07-22T08:47:31;100862.50;;;18.68;65.86
40089;BME280;25793;55.706;13.186;2022-07-22T08:50:22;100865.41;;;18.75;65.90
40089;BME280;25793;55.706;13.186;2022-07-22T08:52:59;100871.34;;;18.77;65.04
40089;BME280;25793;55.706;13.186;2022-07-22T08:55:26;100867.88;;;18.67;65.34
40089;BME280;25793;55.706;13.186;2022-07-22T08:57:55;100877.81;;;18.34;64.90
40089;BME280;25793;55.706;13.186;2022-07-22T09:00:23;100862.63;;;18.86;62.94
40089;BME280;25793;55.706;13.186;2022-07-22T09:02:50;100868.84;;;18.56;62.59
40089;BME280;25793;55.706;13.186;2022-07-22T09:05:17;100871.88;;;18.41;62.25
40089;BME280;25793;55.706;13.186;2022-07-22T09:08:05;100860.16;;;18.14;63.09
40089;BME280;25793;55.706;13.186;2022-07-22T09:10:48;100859.38;;;18.34;61.91
40089;BME280;25793;55.706;13.186;2022-07-22T09:13:47;100851.75;;;18.30;61.45
40089;BME280;25793;55.706;13.186;2022-07-22T09:16:43;100853.22;;;19.03;59.14
40089;BME280;25793;55.706;13.186;2022-07-22T09:19:31;100864.56;;;18.84;59.09
40089;BME280;25793;55.706;13.186;2022-07-22T09:22:37;100848.34;;;19.18;58.62
40089;BME280;25793;55.706;13.186;2022-07-22T09:30:55;100855.28;;;19.10;56.84
40089;BME280;25793;55.706;13.186;2022-07-22T09:33:25;100857.28;;;19.93;54.14
40089;BME280;25793;55.706;13.186;2022-07-22T09:36:04;100858.38;;;19.53;54.26
40089;BME280;25793;55.706;13.186;2022-07-22T09:38:34;100864.03;;;19.00;54.31
40089;BME280;25793;55.706;13.186;2022-07-22T09:41:01;100867.59;;;18.60;56.06
40089;BME280;25793;55.706;13.186;2022-07-22T09:43:35;100867.19;;;18.65;55.54
40089;BME280;25793;55.706;13.186;2022-07-22T09:46:03;100873.00;;;18.88;55.16
40089;BME280;25793;55.706;13.186;2022-07-22T09:48:57;100870.53;;;19.26;56.13
40089;BME280;25793;55.706;13.186;2022-07-22T09:51:48;100861.09;;;19.71;56.16
40089;BME280;25793;55.706;13.186;2022-07-22T09:54:16;100858.38;;;20.00;55.96
40089;BME280;25793;55.706;13.186;2022-07-22T09:56:44;100857.56;;;20.18;56.29
40089;BME280;25793;55.706;13.186;2022-07-22T09:59:14;100857.38;;;20.47;55.87
40089;BME280;25793;55.706;13.186;2022-07-22T10:01:45;100871.28;;;20.67;55.72
40089;BME280;25793;55.706;13.186;2022-07-22T10:04:14;100880.53;;;20.07;58.40
40089;BME280;25793;55.706;13.186;2022-07-22T10:06:42;100873.72;;;19.77;59.10
40089;BME280;25793;55.706;13.186;2022-07-22T10:09:16;100879.63;;;19.99;59.46
40089;BME280;25793;55.706;13.186;2022-07-22T10:11:44;100881.47;;;19.21;60.86
40089;BME280;25793;55.706;13.186;2022-07-22T10:14:18;100872.38;;;19.63;58.86
40089;BME280;25793;55.706;13.186;2022-07-22T10:16:50;100869.91;;;19.51;59.36
40089;BME280;25793;55.706;13.186;2022-07-22T10:19:17;100877.28;;;19.38;60.61
40089;BME280;25793;55.706;13.186;2022-07-22T10:21:44;100877.72;;;18.65;60.48
40089;BME280;25793;55.706;13.186;2022-07-22T10:24:13;100879.38;;;19.44;59.41
40089;BME280;25793;55.706;13.186;2022-07-22T10:29:41;100887.72;;;18.81;61.33
40089;BME280;25793;55.706;13.186;2022-07-22T10:34:44;100882.44;;;18.71;61.97
40089;BME280;25793;55.706;13.186;2022-07-22T10:40:19;100883.69;;;18.76;60.86
40089;BME280;25793;55.706;13.186;2022-07-22T10:45:32;100879.38;;;18.56;61.78
40089;BME280;25793;55.706;13.186;2022-07-22T10:48:09;100880.34;;;18.65;62.08
40089;BME280;25793;55.706;13.186;2022-07-22T10:53:06;100879.66;;;18.43;63.99
40089;BME280;25793;55.706;13.186;2022-07-22T10:55:33;100872.06;;;18.09;65.33
40089;BME280;25793;55.706;13.186;2022-07-22T10:58:30;100874.47;;;18.31;65.35
40089;BME280;25793;55.706;13.186;2022-07-22T11:00:47;100869.94;;;18.43;65.58
40089;BME280;25793;55.706;13.186;2022-07-22T11:03:34;100880.22;;;18.76;65.27
40089;BME280;25793;55.706;13.186;2022-07-22T11:08:42;100883.31;;;18.21;66.20
40089;BME280;25793;55.706;13.186;2022-07-22T11:11:09;100876.03;;;18.44;66.48
40089;BME280;25793;55.706;13.186;2022-07-22T11:13:37;100879.47;;;17.94;67.83
40089;BME280;25793;55.706;13.186;2022-07-22T11:18:49;100887.53;;;18.33;65.57
40089;BME280;25793;55.706;13.186;2022-07-22T11:21:18;100883.28;;;17.80;67.07
40089;BME280;25793;55.706;13.186;2022-07-22T11:23:48;100893.97;;;17.57;68.36
40089;BME280;25793;55.706;13.186;2022-07-22T11:26:17;100890.69;;;17.65;68.05
40089;BME280;25793;55.706;13.186;2022-07-22T11:28:45;100888.22;;;17.73;67.68
40089;BME280;25793;55.706;13.186;2022-07-22T11:31:18;100890.00;;;18.25;66.67
40089;BME280;25793;55.706;13.186;2022-07-22T11:33:45;100892.13;;;17.79;67.84
40089;BME280;25793;55.706;13.186;2022-07-22T11:36:12;100905.66;;;17.95;67.43
40089;BME280;25793;55.706;13.186;2022-07-22T11:38:44;100888.88;;;17.96;67.35
40089;BME280;25793;55.706;13.186;2022-07-22T11:41:19;100898.53;;;18.17;67.30
40089;BME280;25793;55.706;13.186;2022-07-22T11:43:48;100896.78;;;18.27;66.55
40089;BME280;25793;55.706;13.186;2022-07-22T11:46:17;100888.72;;;18.19;66.42
40089;BME280;25793;55.706;13.186;2022-07-22T11:48:44;100888.69;;;18.80;65.36
40089;BME280;25793;55.706;13.186;2022-07-22T11:51:12;100891.63;;;19.16;64.30
40089;BME280;25793;55.706;13.186;2022-07-22T11:53:47;100894.97;;;19.08;64.31
40089;BME280;25793;55.706;13.186;2022-07-22T11:56:14;100895.59;;;19.49;63.06
40089;BME280;25793;55.706;13.186;2022-07-22T11:58:48;100895.13;;;19.74;62.30
40089;BME280;25793;55.706;13.186;2022-07-22T12:01:25;100892.53;;;19.64;62.37
40089;BME280;25793;55.706;13.186;2022-07-22T12:03:55;100907.25;;;19.57;61.26
40089;BME280;25793;55.706;13.186;2022-07-22T12:06:24;100899.38;;;19.85;59.49
40089;BME280;25793;55.706;13.186;2022-07-22T12:08:54;100882.66;;;20.50;57.59
40089;BME280;25793;55.706;13.186;2022-07-22T12:11:23;100893.63;;;20.73;53.93
40089;BME280;25793;55.706;13.186;2022-07-22T12:13:53;100891.81;;;20.55;51.36
40089;BME280;25793;55.706;13.186;2022-07-22T12:16:26;100895.25;;;20.38;52.75
40089;BME280;25793;55.706;13.186;2022-07-22T12:18:55;100900.91;;;19.77;56.38
40089;BME280;25793;55.706;13.186;2022-07-22T12:21:23;100889.16;;;19.72;57.29
40089;BME280;25793;55.706;13.186;2022-07-22T12:26:51;100901.91;;;19.29;59.09
40089;BME280;25793;55.706;13.186;2022-07-22T12:31:57;100882.25;;;19.99;57.16
40089;BME280;25793;55.706;13.186;2022-07-22T12:34:35;100897.53;;;20.05;56.40
40089;BME280;25793;55.706;13.186;2022-07-22T12:37:18;100878.75;;;19.60;58.30
40089;BME280;25793;55.706;13.186;2022-07-22T12:40:00;100888.88;;;20.40;56.59
40089;BME280;25793;55.706;13.186;2022-07-22T12:42:31;100884.34;;;21.05;55.10
40089;BME280;25793;55.706;13.186;2022-07-22T12:50:32;100884.66;;;20.20;56.53
40089;BME280;25793;55.706;13.186;2022-07-22T12:53:05;100872.00;;;20.23;56.35
40089;BME280;25793;55.706;13.186;2022-07-22T12:55:46;100868.53;;;20.41;56.14
40089;BME280;25793;55.706;13.186;2022-07-22T12:58:15;100870.69;;;20.55;55.78
40089;BME280;25793;55.706;13.186;2022-07-22T13:00:47;100873.19;;;20.11;56.64
40089;BME280;25793;55.706;13.186;2022-07-22T13:03:14;100875.22;;;19.89;57.17
40089;BME280;25793;55.706;13.186;2022-07-22T13:05:41;100869.75;;;20.01;57.17
40089;BME280;25793;55.706;13.186;2022-07-22T13:08:08;100866.09;;;20.76;55.37
40089;BME280;25793;55.706;13.186;2022-07-22T13:10:36;100857.41;;;20.01;56.67
40089;BME280;25793;55.706;13.186;2022-07-22T13:13:05;100863.44;;;20.58;54.66
40089;BME280;25793;55.706;13.186;2022-07-22T13:15:32;100870.09;;;19.78;55.65
40089;BME280;25793;55.706;13.186;2022-07-22T13:17:59;100871.19;;;19.85;55.73
40089;BME280;25793;55.706;13.186;2022-07-22T13:20:26;100863.75;;;20.27;55.20
40089;BME280;25793;55.706;13.186;2022-07-22T13:22:53;100864.16;;;20.32;54.58
40089;BME280;25793;55.706;13.186;2022-07-22T13:25:19;100863.13;;;20.43;54.68
40089;BME280;25793;55.706;13.186;2022-07-22T13:27:46;100860.69;;;20.31;54.65
40089;BME280;25793;55.706;13.186;2022-07-22T13:30:13;100862.59;;;20.75;53.58
40089;BME280;25793;55.706;13.186;2022-07-22T13:32:40;100858.81;;;21.14;52.42